sensor_id;sensor_type;location;lat;lon;timestamp;P1;durP1;ratioP1;P2;durP2;ratioP2
64868;SDS011;51349;52.424;10.840;2023-08-20T00:03:08;13.98;;;11.23;;
64868;SDS011;51349;52.424;10.840;2023-08-20T00:08:11;11.38;;;10.27;;
64868;SDS011;51349;52.424;10.840;2023-08-20T00:13:12;10.85;;;9.60;;
64868;SDS011;51349;52.424;10.840;2023-08-20T00:18:13;10.95;;;9.30;;
64868;SDS011;51349;52.424;10.840;2023-08-20T00:23:14;10.05;;;9.00;;
64868;SDS011;51349;52.424;10.840;2023-08-20T00:28:15;11.20;;;10.00;;
64868;SDS011;51349;52.424;10.840;2023-08-20T00:33:16;10.88;;;9.77;;
64868;SDS011;51349;52.424;10.840;2023-08-20T00:38:17;13.40;;;10.82;;
64868;SDS011;51349;52.424;10.840;2023-08-20T00:43:18;11.55;;;9.98;;
64868;SDS011;51349;52.424;10.840;2023-08-20T00:48:18;10.90;;;9.48;;
64868;SDS011;51349;52.424;10.840;2023-08-20T00:53:19;10.52;;;9.13;;
64868;SDS011;51349;52.424;10.840;2023-08-20T00:58:20;16.40;;;10.38;;
64868;SDS011;51349;52.424;10.840;2023-08-20T01:03:20;15.00;;;11.60;;
64868;SDS011;51349;52.424;10.840;2023-08-20T01:13:58;13.10;;;10.55;;
64868;SDS011;51349;52.424;10.840;2023-08-20T01:18:58;15.15;;;12.32;;
64868;SDS011;51349;52.424;10.840;2023-08-20T01:29:16;20.50;;;14.20;;
64868;SDS011;51349;52.424;10.840;2023-08-20T01:34:17;17.80;;;12.90;;
64868;SDS011;51349;52.424;10.840;2023-08-20T01:39:18;17.70;;;11.90;;
64868;SDS011;51349;52.424;10.840;2023-08-20T01:44:18;11.32;;;9.77;;
64868;SDS011;51349;52.424;10.840;2023-08-20T01:49:19;9.63;;;8.48;;
64868;SDS011;51349;52.424;10.840;2023-08-20T01:54:20;9.77;;;8.43;;
64868;SDS011;51349;52.424;10.840;2023-08-20T01:59:21;10.30;;;8.45;;
64868;SDS011;51349;52.424;10.840;2023-08-20T02:04:22;19.52;;;8.68;;
64868;SDS011;51349;52.424;10.840;2023-08-20T02:09:23;10.85;;;8.23;;
64868;SDS011;51349;52.424;10.840;2023-08-20T02:14:24;7.80;;;7.00;;
64868;SDS011;51349;52.424;10.840;2023-08-20T02:19:27;10.68;;;8.32;;
64868;SDS011;51349;52.424;10.840;2023-08-20T02:24:27;10.05;;;7.88;;
64868;SDS011;51349;52.424;10.840;2023-08-20T02:29:28;8.35;;;7.50;;
64868;SDS011;51349;52.424;10.840;2023-08-20T02:34:29;9.00;;;8.10;;
64868;SDS011;51349;52.424;10.840;2023-08-20T02:39:29;8.48;;;7.60;;
64868;SDS011;51349;52.424;10.840;2023-08-20T02:44:31;8.70;;;7.80;;
64868;SDS011;51349;52.424;10.840;2023-08-20T02:49:32;7.90;;;7.15;;
64868;SDS011;51349;52.424;10.840;2023-08-20T02:54:32;9.60;;;7.78;;
64868;SDS011;51349;52.424;10.840;2023-08-20T02:59:33;8.07;;;7.28;;
64868;SDS011;51349;52.424;10.840;2023-08-20T03:04:34;8.10;;;7.30;;
64868;SDS011;51349;52.424;10.840;2023-08-20T03:09:35;7.22;;;6.40;;
64868;SDS011;51349;52.424;10.840;2023-08-20T03:14:35;8.90;;;6.60;;
64868;SDS011;51349;52.424;10.840;2023-08-20T03:19:36;7.35;;;6.25;;
64868;SDS011;51349;52.424;10.840;2023-08-20T03:24:36;7.57;;;6.35;;
64868;SDS011;51349;52.424;10.840;2023-08-20T03:29:37;9.25;;;6.55;;
64868;SDS011;51349;52.424;10.840;2023-08-20T03:34:38;6.82;;;6.22;;
64868;SDS011;51349;52.424;10.840;2023-08-20T03:39:38;6.45;;;5.82;;
64868;SDS011;51349;52.424;10.840;2023-08-20T03:44:39;6.82;;;6.13;;
64868;SDS011;51349;52.424;10.840;2023-08-20T03:49:39;8.98;;;6.38;;
64868;SDS011;51349;52.424;10.840;2023-08-20T03:54:40;7.03;;;6.40;;
64868;SDS011;51349;52.424;10.840;2023-08-20T03:59:41;8.25;;;6.50;;
64868;SDS011;51349;52.424;10.840;2023-08-20T04:04:41;7.93;;;6.70;;
64868;SDS011;51349;52.424;10.840;2023-08-20T04:09:42;7.57;;;6.78;;
64868;SDS011;51349;52.424;10.840;2023-08-20T04:14:43;8.13;;;6.43;;
64868;SDS011;51349;52.424;10.840;2023-08-20T04:19:44;8.98;;;6.78;;
64868;SDS011;51349;52.424;10.840;2023-08-20T04:24:44;7.13;;;6.40;;
64868;SDS011;51349;52.424;10.840;2023-08-20T04:29:45;7.90;;;6.07;;
64868;SDS011;51349;52.424;10.840;2023-08-20T04:34:45;6.63;;;5.95;;
64868;SDS011;51349;52.424;10.840;2023-08-20T04:39:48;6.75;;;5.78;;
64868;SDS011;51349;52.424;10.840;2023-08-20T04:44:49;6.63;;;6.03;;
64868;SDS011;51349;52.424;10.840;2023-08-20T04:49:49;7.70;;;6.38;;
64868;SDS011;51349;52.424;10.840;2023-08-20T04:54:50;7.57;;;6.78;;
64868;SDS011;51349;52.424;10.840;2023-08-20T04:59:51;9.32;;;6.32;;
64868;SDS011;51349;52.424;10.840;2023-08-20T05:04:52;6.78;;;6.15;;
64868;SDS011;51349;52.424;10.840;2023-08-20T05:09:52;7.60;;;6.60;;
64868;SDS011;51349;52.424;10.840;2023-08-20T05:14:53;7.80;;;7.00;;
64868;SDS011;51349;52.424;10.840;2023-08-20T05:19:54;7.20;;;6.50;;
64868;SDS011;51349;52.424;10.840;2023-08-20T05:24:54;8.77;;;6.88;;
64868;SDS011;51349;52.424;10.840;2023-08-20T05:29:55;9.00;;;6.97;;
64868;SDS011;51349;52.424;10.840;2023-08-20T05:34:56;9.23;;;7.28;;
64868;SDS011;51349;52.424;10.840;2023-08-20T05:39:56;7.88;;;6.50;;
64868;SDS011;51349;52.424;10.840;2023-08-20T05:44:57;7.25;;;6.45;;
64868;SDS011;51349;52.424;10.840;2023-08-20T05:49:58;9.63;;;6.80;;
64868;SDS011;51349;52.424;10.840;2023-08-20T05:54:58;6.78;;;5.97;;
64868;SDS011;51349;52.424;10.840;2023-08-20T05:59:59;8.15;;;6.85;;
64868;SDS011;51349;52.424;10.840;2023-08-20T06:05:00;8.27;;;6.55;;
64868;SDS011;51349;52.424;10.840;2023-08-20T06:10:00;8.75;;;6.88;;
64868;SDS011;51349;52.424;10.840;2023-08-20T06:15:01;7.97;;;6.70;;
64868;SDS011;51349;52.424;10.840;2023-08-20T06:20:03;7.47;;;5.80;;
64868;SDS011;51349;52.424;10.840;2023-08-20T06:25:07;6.72;;;4.88;;
64868;SDS011;51349;52.424;10.840;2023-08-20T06:30:08;7.40;;;5.55;;
64868;SDS011;51349;52.424;10.840;2023-08-20T06:35:09;8.85;;;5.38;;
64868;SDS011;51349;52.424;10.840;2023-08-20T06:40:10;6.97;;;4.28;;
64868;SDS011;51349;52.424;10.840;2023-08-20T06:45:11;6.97;;;4.70;;
64868;SDS011;51349;52.424;10.840;2023-08-20T06:50:12;5.15;;;3.92;;
64868;SDS011;51349;52.424;10.840;2023-08-20T06:55:12;5.22;;;3.75;;
64868;SDS011;51349;52.424;10.840;2023-08-20T07:00:13;4.28;;;3.92;;
64868;SDS011;51349;52.424;10.840;2023-08-20T07:05:15;4.63;;;4.22;;
64868;SDS011;51349;52.424;10.840;2023-08-20T07:10:15;6.10;;;4.13;;
64868;SDS011;51349;52.424;10.840;2023-08-20T07:15:16;5.55;;;3.60;;
64868;SDS011;51349;52.424;10.840;2023-08-20T07:20:17;4.43;;;3.47;;
64868;SDS011;51349;52.424;10.840;2023-08-20T07:25:17;4.20;;;3.90;;
64868;SDS011;51349;52.424;10.840;2023-08-20T07:30:18;4.47;;;3.10;;
64868;SDS011;51349;52.424;10.840;2023-08-20T07:35:19;3.97;;;3.33;;
64868;SDS011;51349;52.424;10.840;2023-08-20T07:40:19;3.25;;;3.05;;
64868;SDS011;51349;52.424;10.840;2023-08-20T07:45:20;4.18;;;2.90;;
64868;SDS011;51349;52.424;10.840;2023-08-20T07:50:21;3.40;;;3.10;;
64868;SDS011;51349;52.424;10.840;2023-08-20T07:55:22;7.35;;;4.30;;
64868;SDS011;51349;52.424;10.840;2023-08-20T08:00:22;4.18;;;3.30;;
64868;SDS011;51349;52.424;10.840;2023-08-20T08:05:23;3.78;;;3.38;;
64868;SDS011;51349;52.424;10.840;2023-08-20T08:10:24;6.05;;;3.40;;
64868;SDS011;51349;52.424;10.840;2023-08-20T08:15:24;3.88;;;3.58;;
64868;SDS011;51349;52.424;10.840;2023-08-20T08:20:25;2.83;;;2.63;;
64868;SDS011;51349;52.424;10.840;2023-08-20T08:25:26;6.15;;;3.13;;
64868;SDS011;51349;52.424;10.840;2023-08-20T08:30:27;2.97;;;2.72;;
64868;SDS011;51349;52.424;10.840;2023-08-20T08:35:29;2.95;;;2.72;;
64868;SDS011;51349;52.424;10.840;2023-08-20T08:40:30;2.67;;;2.47;;
64868;SDS011;51349;52.424;10.840;2023-08-20T08:45:31;2.25;;;2.05;;
64868;SDS011;51349;52.424;10.840;2023-08-20T08:50:33;2.70;;;2.40;;
64868;SDS011;51349;52.424;10.840;2023-08-20T08:55:34;2.40;;;2.30;;
64868;SDS011;51349;52.424;10.840;2023-08-20T09:00:35;2.65;;;2.50;;
64868;SDS011;51349;52.424;10.840;2023-08-20T09:05:45;2.97;;;2.70;;
64868;SDS011;51349;52.424;10.840;2023-08-20T09:10:55;3.10;;;2.08;;
64868;SDS011;51349;52.424;10.840;2023-08-20T09:15:56;4.20;;;2.50;;
64868;SDS011;51349;52.424;10.840;2023-08-20T09:20:57;2.30;;;2.10;;
64868;SDS011;51349;52.424;10.840;2023-08-20T09:26:01;2.17;;;2.08;;
64868;SDS011;51349;52.424;10.840;2023-08-20T09:31:03;2.60;;;2.40;;
64868;SDS011;51349;52.424;10.840;2023-08-20T09:36:03;2.40;;;2.20;;
64868;SDS011;51349;52.424;10.840;2023-08-20T09:41:05;2.33;;;2.22;;
64868;SDS011;51349;52.424;10.840;2023-08-20T09:46:08;2.35;;;2.05;;
64868;SDS011;51349;52.424;10.840;2023-08-20T09:51:13;2.15;;;2.05;;
64868;SDS011;51349;52.424;10.840;2023-08-20T09:56:21;4.30;;;2.65;;
64868;SDS011;51349;52.424;10.840;2023-08-20T10:01:29;2.40;;;2.20;;
64868;SDS011;51349;52.424;10.840;2023-08-20T10:06:30;2.53;;;2.20;;
64868;SDS011;51349;52.424;10.840;2023-08-20T10:11:34;2.10;;;2.00;;
64868;SDS011;51349;52.424;10.840;2023-08-20T10:16:34;2.40;;;2.30;;
64868;SDS011;51349;52.424;10.840;2023-08-20T10:21:35;2.63;;;2.05;;
64868;SDS011;51349;52.424;10.840;2023-08-20T10:26:36;2.53;;;2.40;;
64868;SDS011;51349;52.424;10.840;2023-08-20T10:31:37;2.47;;;2.20;;
64868;SDS011;51349;52.424;10.840;2023-08-20T10:36:47;2.70;;;2.50;;
64868;SDS011;51349;52.424;10.840;2023-08-20T10:42:07;2.45;;;2.25;;
64868;SDS011;51349;52.424;10.840;2023-08-20T10:47:47;2.20;;;2.10;;
64868;SDS011;51349;52.424;10.840;2023-08-20T10:52:54;2.10;;;2.00;;
64868;SDS011;51349;52.424;10.840;2023-08-20T10:57:56;3.05;;;1.92;;
64868;SDS011;51349;52.424;10.840;2023-08-20T11:02:59;4.53;;;4.22;;
64868;SDS011;51349;52.424;10.840;2023-08-20T11:08:00;3.63;;;3.00;;
64868;SDS011;51349;52.424;10.840;2023-08-20T11:13:03;2.60;;;2.40;;
64868;SDS011;51349;52.424;10.840;2023-08-20T11:18:05;2.42;;;2.22;;
64868;SDS011;51349;52.424;10.840;2023-08-20T11:23:07;2.67;;;2.47;;
64868;SDS011;51349;52.424;10.840;2023-08-20T11:28:09;2.50;;;2.30;;
64868;SDS011;51349;52.424;10.840;2023-08-20T11:33:10;2.15;;;1.98;;
64868;SDS011;51349;52.424;10.840;2023-08-20T11:38:11;2.53;;;1.83;;
64868;SDS011;51349;52.424;10.840;2023-08-20T11:43:12;2.05;;;1.95;;
64868;SDS011;51349;52.424;10.840;2023-08-20T11:48:13;2.33;;;2.22;;
64868;SDS011;51349;52.424;10.840;2023-08-20T11:53:15;2.40;;;2.20;;
64868;SDS011;51349;52.424;10.840;2023-08-20T11:58:20;2.30;;;2.20;;
64868;SDS011;51349;52.424;10.840;2023-08-20T12:03:22;2.13;;;2.00;;
64868;SDS011;51349;52.424;10.840;2023-08-20T12:08:28;2.20;;;2.10;;
64868;SDS011;51349;52.424;10.840;2023-08-20T12:13:37;2.22;;;2.00;;
64868;SDS011;51349;52.424;10.840;2023-08-20T12:18:38;2.28;;;2.17;;
64868;SDS011;51349;52.424;10.840;2023-08-20T12:23:39;2.10;;;1.90;;
64868;SDS011;51349;52.424;10.840;2023-08-20T12:28:40;2.00;;;1.90;;
64868;SDS011;51349;52.424;10.840;2023-08-20T12:33:41;2.20;;;2.00;;
64868;SDS011;51349;52.424;10.840;2023-08-20T12:38:42;2.42;;;2.22;;
64868;SDS011;51349;52.424;10.840;2023-08-20T12:43:43;2.60;;;2.40;;
64868;SDS011;51349;52.424;10.840;2023-08-20T12:48:44;2.42;;;2.30;;
64868;SDS011;51349;52.424;10.840;2023-08-20T12:53:44;2.40;;;2.30;;
64868;SDS011;51349;52.424;10.840;2023-08-20T12:58:45;2.55;;;2.17;;
64868;SDS011;51349;52.424;10.840;2023-08-20T13:03:46;2.35;;;2.20;;
64868;SDS011;51349;52.424;10.840;2023-08-20T13:08:47;2.22;;;2.13;;
64868;SDS011;51349;52.424;10.840;2023-08-20T13:13:48;4.22;;;2.17;;
64868;SDS011;51349;52.424;10.840;2023-08-20T13:18:48;2.63;;;2.42;;
64868;SDS011;51349;52.424;10.840;2023-08-20T13:23:49;2.22;;;2.13;;
64868;SDS011;51349;52.424;10.840;2023-08-20T13:28:50;2.40;;;2.30;;
64868;SDS011;51349;52.424;10.840;2023-08-20T13:33:51;3.08;;;2.60;;
64868;SDS011;51349;52.424;10.840;2023-08-20T13:38:53;2.40;;;2.20;;
64868;SDS011;51349;52.424;10.840;2023-08-20T13:43:53;2.55;;;2.45;;
64868;SDS011;51349;52.424;10.840;2023-08-20T13:48:54;2.50;;;2.40;;
64868;SDS011;51349;52.424;10.840;2023-08-20T13:53:55;2.83;;;2.25;;
64868;SDS011;51349;52.424;10.840;2023-08-20T13:58:56;2.88;;;2.67;;
64868;SDS011;51349;52.424;10.840;2023-08-20T14:03:56;3.13;;;2.90;;
64868;SDS011;51349;52.424;10.840;2023-08-20T14:08:57;2.58;;;2.47;;
64868;SDS011;51349;52.424;10.840;2023-08-20T14:13:58;3.40;;;2.67;;
64868;SDS011;51349;52.424;10.840;2023-08-20T14:18:58;2.70;;;2.50;;
64868;SDS011;51349;52.424;10.840;2023-08-20T14:23:59;3.00;;;2.60;;
64868;SDS011;51349;52.424;10.840;2023-08-20T14:29:00;2.47;;;2.28;;
64868;SDS011;51349;52.424;10.840;2023-08-20T14:34:01;2.67;;;2.50;;
64868;SDS011;51349;52.424;10.840;2023-08-20T14:39:02;2.50;;;2.40;;
64868;SDS011;51349;52.424;10.840;2023-08-20T14:44:04;2.80;;;2.60;;
64868;SDS011;51349;52.424;10.840;2023-08-20T14:49:05;2.80;;;2.60;;
64868;SDS011;51349;52.424;10.840;2023-08-20T14:54:06;3.00;;;2.65;;
64868;SDS011;51349;52.424;10.840;2023-08-20T14:59:07;2.50;;;2.40;;
64868;SDS011;51349;52.424;10.840;2023-08-20T15:04:09;2.15;;;2.05;;
64868;SDS011;51349;52.424;10.840;2023-08-20T15:09:10;2.20;;;2.10;;
64868;SDS011;51349;52.424;10.840;2023-08-20T15:14:15;2.22;;;2.13;;
64868;SDS011;51349;52.424;10.840;2023-08-20T15:19:16;2.30;;;2.10;;
64868;SDS011;51349;52.424;10.840;2023-08-20T15:24:16;2.28;;;2.17;;
64868;SDS011;51349;52.424;10.840;2023-08-20T15:29:17;2.78;;;2.58;;
64868;SDS011;51349;52.424;10.840;2023-08-20T15:34:18;2.30;;;2.10;;
64868;SDS011;51349;52.424;10.840;2023-08-20T15:39:18;2.45;;;2.35;;
64868;SDS011;51349;52.424;10.840;2023-08-20T15:44:19;2.20;;;2.10;;
64868;SDS011;51349;52.424;10.840;2023-08-20T15:49:20;2.42;;;2.25;;
64868;SDS011;51349;52.424;10.840;2023-08-20T15:54:20;2.38;;;2.20;;
64868;SDS011;51349;52.424;10.840;2023-08-20T15:59:21;2.65;;;2.45;;
64868;SDS011;51349;52.424;10.840;2023-08-20T16:04:22;2.88;;;2.63;;
64868;SDS011;51349;52.424;10.840;2023-08-20T16:09:22;2.25;;;2.15;;
64868;SDS011;51349;52.424;10.840;2023-08-20T16:14:23;2.55;;;2.40;;
64868;SDS011;51349;52.424;10.840;2023-08-20T16:19:24;2.53;;;2.28;;
64868;SDS011;51349;52.424;10.840;2023-08-20T16:24:25;2.58;;;2.38;;
64868;SDS011;51349;52.424;10.840;2023-08-20T16:29:26;2.17;;;2.08;;
64868;SDS011;51349;52.424;10.840;2023-08-20T16:34:27;4.20;;;2.40;;
64868;SDS011;51349;52.424;10.840;2023-08-20T16:39:28;3.28;;;2.15;;
64868;SDS011;51349;52.424;10.840;2023-08-20T16:44:29;2.67;;;2.47;;
64868;SDS011;51349;52.424;10.840;2023-08-20T16:49:29;2.17;;;2.08;;
64868;SDS011;51349;52.424;10.840;2023-08-20T16:54:30;2.85;;;2.28;;
64868;SDS011;51349;52.424;10.840;2023-08-20T16:59:30;2.72;;;2.20;;
64868;SDS011;51349;52.424;10.840;2023-08-20T17:04:32;2.63;;;2.00;;
64868;SDS011;51349;52.424;10.840;2023-08-20T17:09:33;2.40;;;2.30;;
64868;SDS011;51349;52.424;10.840;2023-08-20T17:14:33;2.22;;;2.13;;
64868;SDS011;51349;52.424;10.840;2023-08-20T17:19:34;2.45;;;2.30;;
64868;SDS011;51349;52.424;10.840;2023-08-20T17:24:35;2.70;;;2.50;;
64868;SDS011;51349;52.424;10.840;2023-08-20T17:29:36;2.35;;;2.20;;
64868;SDS011;51349;52.424;10.840;2023-08-20T17:34:37;3.83;;;2.47;;
64868;SDS011;51349;52.424;10.840;2023-08-20T17:39:38;3.13;;;2.38;;
64868;SDS011;51349;52.424;10.840;2023-08-20T17:44:38;3.63;;;3.22;;
64868;SDS011;51349;52.424;10.840;2023-08-20T17:49:39;2.88;;;2.65;;
64868;SDS011;51349;52.424;10.840;2023-08-20T17:54:40;3.58;;;2.65;;
64868;SDS011;51349;52.424;10.840;2023-08-20T17:59:40;4.65;;;4.25;;
64868;SDS011;51349;52.424;10.840;2023-08-20T18:04:41;2.63;;;2.45;;
64868;SDS011;51349;52.424;10.840;2023-08-20T18:09:41;2.53;;;2.30;;
64868;SDS011;51349;52.424;10.840;2023-08-20T18:14:42;2.65;;;2.55;;
64868;SDS011;51349;52.424;10.840;2023-08-20T18:19:43;2.90;;;2.70;;
64868;SDS011;51349;52.424;10.840;2023-08-20T18:24:43;2.50;;;2.30;;
64868;SDS011;51349;52.424;10.840;2023-08-20T18:29:44;2.55;;;2.42;;
64868;SDS011;51349;52.424;10.840;2023-08-20T18:34:45;2.80;;;2.60;;
64868;SDS011;51349;52.424;10.840;2023-08-20T18:39:46;2.85;;;2.65;;
64868;SDS011;51349;52.424;10.840;2023-08-20T18:44:46;2.85;;;2.65;;
64868;SDS011;51349;52.424;10.840;2023-08-20T18:49:47;3.00;;;2.70;;
64868;SDS011;51349;52.424;10.840;2023-08-20T18:54:48;3.00;;;2.80;;
64868;SDS011;51349;52.424;10.840;2023-08-20T18:59:48;4.35;;;2.85;;
64868;SDS011;51349;52.424;10.840;2023-08-20T19:04:49;3.28;;;3.05;;
64868;SDS011;51349;52.424;10.840;2023-08-20T19:09:50;2.78;;;2.58;;
64868;SDS011;51349;52.424;10.840;2023-08-20T19:14:50;3.22;;;2.83;;
64868;SDS011;51349;52.424;10.840;2023-08-20T19:19:51;3.05;;;2.58;;
64868;SDS011;51349;52.424;10.840;2023-08-20T19:24:52;3.20;;;2.60;;
64868;SDS011;51349;52.424;10.840;2023-08-20T19:29:52;2.83;;;2.63;;
64868;SDS011;51349;52.424;10.840;2023-08-20T19:34:53;3.20;;;2.90;;
64868;SDS011;51349;52.424;10.840;2023-08-20T19:39:54;3.20;;;2.72;;
64868;SDS011;51349;52.424;10.840;2023-08-20T19:44:54;2.88;;;2.60;;
64868;SDS011;51349;52.424;10.840;2023-08-20T19:49:55;3.25;;;3.05;;
64868;SDS011;51349;52.424;10.840;2023-08-20T19:54:56;2.92;;;2.72;;
64868;SDS011;51349;52.424;10.840;2023-08-20T19:59:56;5.97;;;2.90;;
64868;SDS011;51349;52.424;10.840;2023-08-20T20:04:57;3.15;;;2.90;;
64868;SDS011;51349;52.424;10.840;2023-08-20T20:09:57;3.20;;;2.90;;
64868;SDS011;51349;52.424;10.840;2023-08-20T20:14:58;5.00;;;3.20;;
64868;SDS011;51349;52.424;10.840;2023-08-20T20:19:59;3.88;;;3.58;;
64868;SDS011;51349;52.424;10.840;2023-08-20T20:25:00;3.53;;;3.20;;
64868;SDS011;51349;52.424;10.840;2023-08-20T20:30:01;3.30;;;3.00;;
64868;SDS011;51349;52.424;10.840;2023-08-20T20:35:04;2.92;;;2.72;;
64868;SDS011;51349;52.424;10.840;2023-08-20T20:40:06;3.47;;;3.03;;
64868;SDS011;51349;52.424;10.840;2023-08-20T20:45:09;3.35;;;3.13;;
64868;SDS011;51349;52.424;10.840;2023-08-20T20:50:10;3.20;;;3.00;;
64868;SDS011;51349;52.424;10.840;2023-08-20T20:55:12;3.20;;;2.90;;
64868;SDS011;51349;52.424;10.840;2023-08-20T21:00:12;4.20;;;2.90;;
64868;SDS011;51349;52.424;10.840;2023-08-20T21:05:13;3.63;;;2.72;;
64868;SDS011;51349;52.424;10.840;2023-08-20T21:10:14;6.43;;;3.08;;
64868;SDS011;51349;52.424;10.840;2023-08-20T21:15:15;3.45;;;3.15;;
64868;SDS011;51349;52.424;10.840;2023-08-20T21:20:15;3.08;;;2.88;;
64868;SDS011;51349;52.424;10.840;2023-08-20T21:25:16;4.82;;;2.83;;
64868;SDS011;51349;52.424;10.840;2023-08-20T21:30:17;7.45;;;3.25;;
64868;SDS011;51349;52.424;10.840;2023-08-20T21:35:18;3.20;;;3.00;;
64868;SDS011;51349;52.424;10.840;2023-08-20T21:40:18;3.63;;;3.22;;
64868;SDS011;51349;52.424;10.840;2023-08-20T21:45:19;3.60;;;3.10;;
64868;SDS011;51349;52.424;10.840;2023-08-20T21:50:21;3.63;;;3.20;;
64868;SDS011;51349;52.424;10.840;2023-08-20T21:55:21;3.85;;;3.00;;
64868;SDS011;51349;52.424;10.840;2023-08-20T22:00:22;3.25;;;3.00;;
64868;SDS011;51349;52.424;10.840;2023-08-20T22:05:23;3.40;;;3.20;;
64868;SDS011;51349;52.424;10.840;2023-08-20T22:10:24;3.65;;;3.42;;
64868;SDS011;51349;52.424;10.840;2023-08-20T22:15:25;3.38;;;3.08;;
64868;SDS011;51349;52.424;10.840;2023-08-20T22:20:26;4.10;;;3.10;;
64868;SDS011;51349;52.424;10.840;2023-08-20T22:25:27;3.70;;;3.40;;
64868;SDS011;51349;52.424;10.840;2023-08-20T22:30:27;3.60;;;3.25;;
64868;SDS011;51349;52.424;10.840;2023-08-20T22:35:28;3.65;;;3.40;;
64868;SDS011;51349;52.424;10.840;2023-08-20T22:40:29;3.63;;;3.33;;
64868;SDS011;51349;52.424;10.840;2023-08-20T22:45:29;3.35;;;3.15;;
64868;SDS011;51349;52.424;10.840;2023-08-20T22:50:30;3.65;;;3.42;;
64868;SDS011;51349;52.424;10.840;2023-08-20T22:55:31;4.35;;;3.95;;
64868;SDS011;51349;52.424;10.840;2023-08-20T23:00:32;4.85;;;4.45;;
64868;SDS011;51349;52.424;10.840;2023-08-20T23:05:33;5.28;;;4.88;;
64868;SDS011;51349;52.424;10.840;2023-08-20T23:10:33;6.80;;;4.75;;
64868;SDS011;51349;52.424;10.840;2023-08-20T23:15:34;4.50;;;4.10;;
64868;SDS011;51349;52.424;10.840;2023-08-20T23:20:34;6.30;;;4.68;;
64868;SDS011;51349;52.424;10.840;2023-08-20T23:25:35;4.55;;;4.15;;
64868;SDS011;51349;52.424;10.840;2023-08-20T23:30:36;5.45;;;4.47;;
64868;SDS011;51349;52.424;10.840;2023-08-20T23:35:41;4.68;;;4.28;;
64868;SDS011;51349;52.424;10.840;2023-08-20T23:40:42;4.43;;;4.03;;
64868;SDS011;51349;52.424;10.840;2023-08-20T23:45:42;4.70;;;4.30;;
64868;SDS011;51349;52.424;10.840;2023-08-20T23:50:43;4.20;;;3.90;;
64868;SDS011;51349;52.424;10.840;2023-08-20T23:55:44;4.05;;;3.70;;
